Time;durP1;ratioP1;P1;durP2;ratioP2;P2;SDS_P1;SDS_P2;PMS_P1;PMS_P2;Temp;Humidity;BMP_temperature;BMP_pressure;BME280_temperature;BME280_humidity;BME280_pressure;Samples;Min_cycle;Max_cycle;Signal;HPM_P1;HPM_P2
2023/08/02 00:01:22;;;;;;;3.15;1.70;;;;;;;18.09;79.40;99045.06;10334105;28;20672;-78
2023/08/02 00:06:27;;;;;;;4.95;2.35;;;;;;;18.08;79.21;99047.97;10340117;28;20061;-76
2023/08/02 00:11:28;;;;;;;3.22;1.88;;;;;;;18.08;79.38;99047.97;10334023;28;20046;-71
2023/08/02 00:16:29;;;;;;;3.67;1.77;;;;;;;18.08;79.15;99039.88;10337829;28;20046;-72
2023/08/02 00:21:31;;;;;;;5.80;2.83;;;;;;;18.09;78.57;99036.13;10340194;28;20173;-71
2023/08/02 00:26:32;;;;;;;5.25;2.10;;;;;;;18.00;78.90;99033.63;10335007;28;20049;-73
2023/08/02 00:31:34;;;;;;;4.45;2.05;;;;;;;17.98;79.32;99018.72;10339507;28;20179;-75
2023/08/02 00:36:35;;;;;;;4.18;2.08;;;;;;;18.01;78.96;99018.31;10336671;28;20381;-76
2023/08/02 00:41:36;;;;;;;3.53;2.35;;;;;;;17.93;78.71;99016.63;10336972;28;20069;-75
2023/08/02 00:46:38;;;;;;;2.08;1.40;;;;;;;17.98;78.71;99029.47;10338483;28;20508;-75
2023/08/02 00:51:39;;;;;;;5.00;2.22;;;;;;;17.95;78.95;99038.78;10334451;28;20060;-78
2023/08/02 00:56:42;;;;;;;4.53;1.70;;;;;;;17.93;79.56;99032.78;10327630;28;20053;-74
2023/08/02 01:01:45;;;;;;;2.90;1.92;;;;;;;17.92;79.29;99027.59;10337197;28;20065;-75
2023/08/02 01:07:11;;;;;;;3.05;1.80;;;;;;;17.97;79.20;99017.88;10338697;28;20074;-72
2023/08/02 01:12:15;;;;;;;4.88;1.60;;;;;;;18.00;79.68;99006.72;10363269;28;20045;-81
2023/08/02 01:17:17;;;;;;;3.17;1.98;;;;;;;18.04;79.62;99009.81;10366310;28;20049;-77
2023/08/02 01:22:18;;;;;;;4.05;1.92;;;;;;;18.00;79.02;99004.03;10345232;28;20572;-74
2023/08/02 01:27:25;;;;;;;4.10;2.13;;;;;;;18.00;79.03;98995.94;10345051;28;20113;-75
2023/08/02 01:32:26;;;;;;;3.15;1.75;;;;;;;18.01;79.08;98981.47;10331329;28;20308;-79
2023/08/02 01:37:28;;;;;;;5.80;2.00;;;;;;;18.00;79.03;98982.47;10348060;28;20061;-74
2023/08/02 01:42:30;;;;;;;3.55;1.88;;;;;;;17.95;79.15;98984.94;10341342;28;20464;-73
2023/08/02 01:47:31;;;;;;;6.55;2.25;;;;;;;17.93;78.78;98978.94;10344531;28;20064;-73
2023/08/02 01:52:33;;;;;;;4.28;2.15;;;;;;;18.00;78.96;98977.09;10335176;28;20122;-76
2023/08/02 01:57:34;;;;;;;4.80;1.65;;;;;;;18.00;78.81;98966.34;10336889;28;20045;-75
2023/08/02 02:02:36;;;;;;;3.15;1.95;;;;;;;17.97;78.79;98974.81;10330936;28;20420;-77
2023/08/02 02:07:37;;;;;;;3.80;1.48;;;;;;;18.01;78.84;98959.91;10328140;28;20068;-76
2023/08/02 02:12:39;;;;;;;5.93;2.00;;;;;;;18.05;78.61;98951.44;10334833;28;20054;-74
2023/08/02 02:17:43;;;;;;;4.20;1.60;;;;;;;18.02;78.48;98931.94;10331837;28;20054;-76
2023/08/02 02:22:44;;;;;;;;;;;;;;;18.02;78.89;98928.44;10332743;28;20053;-77
2023/08/02 02:27:45;;;;;;;5.85;2.47;;;;;;;18.04;78.63;98914.78;10332900;28;20454;-76
2023/08/02 02:32:47;;;;;;;6.95;2.55;;;;;;;17.99;78.87;98918.06;10335187;28;20045;-75
2023/08/02 02:37:48;;;;;;;5.68;2.28;;;;;;;17.94;79.02;98913.31;10330781;28;20067;-79
2023/08/02 02:42:50;;;;;;;4.88;1.70;;;;;;;18.01;78.85;98927.63;10332803;28;20254;-76
2023/08/02 02:47:51;;;;;;;4.10;1.60;;;;;;;18.02;78.55;98913.09;10333111;28;20684;-74
2023/08/02 02:52:53;;;;;;;2.88;1.40;;;;;;;18.07;78.79;98900.91;10332100;28;20738;-74
2023/08/02 02:57:54;;;;;;;2.13;1.42;;;;;;;18.05;78.54;98897.59;10332120;28;20140;-72
2023/08/02 03:02:55;;;;;;;2.75;1.90;;;;;;;18.09;78.07;98896.13;10331892;28;20080;-75
2023/08/02 03:07:57;;;;;;;3.33;1.90;;;;;;;18.09;77.83;98875.44;10343327;28;20050;-77
2023/08/02 03:12:58;;;;;;;3.97;1.70;;;;;;;18.06;77.67;98864.22;10364153;28;20025;-81
2023/08/02 03:18:00;;;;;;;3.90;2.33;;;;;;;18.04;77.30;98863.63;10334654;28;20129;-74
2023/08/02 03:23:01;;;;;;;5.90;1.95;;;;;;;18.05;77.62;98847.25;10336592;28;20054;-73
2023/08/02 03:28:03;;;;;;;3.40;1.50;;;;;;;18.12;77.46;98852.63;10343229;28;20062;-72
2023/08/02 03:33:04;;;;;;;4.07;1.90;;;;;;;18.07;77.17;98837.09;10335099;28;20061;-75
2023/08/02 03:38:06;;;;;;;3.80;1.83;;;;;;;18.01;76.83;98824.47;10342314;28;20060;-75
2023/08/02 03:43:07;;;;;;;2.00;1.70;;;;;;;18.04;77.28;98823.22;10336413;28;20183;-76
2023/08/02 03:48:08;;;;;;;3.30;1.90;;;;;;;18.02;76.48;98804.59;10337184;28;20053;-77
2023/08/02 03:53:10;;;;;;;3.47;1.92;;;;;;;18.00;76.76;98807.50;10339048;28;20362;-74
2023/08/02 03:58:12;;;;;;;6.18;2.20;;;;;;;18.04;76.71;98799.00;10335887;28;20085;-75
2023/08/02 04:03:13;;;;;;;4.22;1.63;;;;;;;18.06;76.69;98786.16;10336490;28;20058;-72
2023/08/02 04:08:14;;;;;;;4.13;1.92;;;;;;;18.05;76.69;98777.25;10335796;28;20057;-73
2023/08/02 04:13:16;;;;;;;3.75;1.92;;;;;;;18.05;76.57;98781.81;10335370;28;20154;-73
2023/08/02 04:18:17;;;;;;;3.50;1.98;;;;;;;18.04;76.63;98778.28;10340673;28;20125;-76
2023/08/02 04:23:19;;;;;;;2.67;1.67;;;;;;;18.07;76.33;98785.13;10338214;28;20053;-72
2023/08/02 04:28:20;;;;;;;3.92;2.03;;;;;;;18.07;75.69;98775.16;10334250;28;20129;-75
2023/08/02 04:33:21;;;;;;;4.80;2.15;;;;;;;18.08;75.60;98779.53;10333887;28;20061;-72
2023/08/02 04:38:23;;;;;;;6.10;1.42;;;;;;;18.14;75.20;98772.50;10333895;28;20136;-75
2023/08/02 04:43:24;;;;;;;4.47;1.60;;;;;;;18.19;75.17;98776.22;10338477;28;20119;-74
2023/08/02 04:48:26;;;;;;;4.18;1.77;;;;;;;18.15;75.34;98753.44;10339245;28;20115;-74
2023/08/02 04:53:27;;;;;;;3.35;1.75;;;;;;;18.12;74.99;98750.31;10339228;28;20061;-69
2023/08/02 04:58:28;;;;;;;5.80;1.92;;;;;;;18.14;75.25;98745.56;10338086;28;20100;-77
2023/08/02 05:03:31;;;;;;;3.70;2.10;;;;;;;18.09;75.02;98742.66;10320768;28;20057;-74
2023/08/02 05:08:35;;;;;;;3.53;1.83;;;;;;;18.06;75.17;98745.75;10324981;28;20119;-75
2023/08/02 05:13:37;;;;;;;3.25;1.70;;;;;;;18.02;75.02;98739.97;10323394;28;20318;-74
2023/08/02 05:18:39;;;;;;;5.00;1.90;;;;;;;18.04;74.98;98734.38;10331315;28;20488;-74
2023/08/02 05:23:41;;;;;;;3.33;1.67;;;;;;;18.05;75.25;98726.09;10322449;28;20049;-71
2023/08/02 05:28:43;;;;;;;4.32;1.70;;;;;;;18.07;75.69;98723.19;10340901;28;20116;-74
2023/08/02 05:33:44;;;;;;;4.35;1.85;;;;;;;18.09;75.62;98719.25;10335138;28;20170;-74
2023/08/02 05:38:46;;;;;;;3.53;2.20;;;;;;;18.11;76.34;98708.28;10337604;28;20060;-74
2023/08/02 05:43:47;;;;;;;3.42;1.95;;;;;;;18.05;76.89;98706.44;10336872;28;20052;-73
2023/08/02 05:48:49;;;;;;;2.75;1.45;;;;;;;18.04;77.20;98713.66;10340485;28;20136;-74
2023/08/02 05:53:50;;;;;;;4.57;1.80;;;;;;;18.01;77.74;98708.69;10337368;28;20056;-74
2023/08/02 05:58:52;;;;;;;3.83;1.70;;;;;;;18.03;78.29;98703.94;10331643;28;20119;-74
2023/08/02 06:03:53;;;;;;;4.18;1.90;;;;;;;18.05;78.86;98684.91;10330892;28;20156;-74
2023/08/02 06:08:57;;;;;;;3.05;1.80;;;;;;;18.05;80.18;98679.50;10344067;28;20059;-76
2023/08/02 06:13:59;;;;;;;3.35;1.70;;;;;;;18.00;80.92;98662.13;10349365;28;20060;-74
2023/08/02 06:19:00;;;;;;;4.13;1.83;;;;;;;17.96;82.11;98652.81;10336629;28;20115;-74
2023/08/02 06:24:02;;;;;;;3.45;1.60;;;;;;;17.89;83.51;98637.69;10334530;28;20056;-73
2023/08/02 06:29:06;;;;;;;5.82;2.33;;;;;;;17.80;85.34;98635.19;10329832;28;20053;-76
2023/08/02 06:34:07;;;;;;;4.13;2.00;;;;;;;17.74;86.51;98640.59;10332247;28;20061;-74
2023/08/02 06:39:09;;;;;;;2.28;1.52;;;;;;;17.64;88.85;98625.72;10329745;28;20046;-76
2023/08/02 06:44:10;;;;;;;2.13;1.70;;;;;;;17.65;90.47;98599.63;10327544;28;20505;-73
2023/08/02 06:49:12;;;;;;;4.05;1.85;;;;;;;17.52;93.25;98583.50;10326019;28;20045;-74
2023/08/02 06:54:13;;;;;;;3.53;1.77;;;;;;;17.46;94.67;98580.63;10321632;28;20622;-75
2023/08/02 06:59:15;;;;;;;4.05;2.08;;;;;;;17.41;96.72;98577.72;10335316;28;20483;-74
2023/08/02 07:04:16;;;;;;;6.25;3.15;;;;;;;17.49;96.67;98582.09;10329350;28;20060;-76
2023/08/02 07:09:17;;;;;;;2.30;1.70;;;;;;;17.48;97.11;98566.97;10335723;28;20050;-73
2023/08/02 07:14:19;;;;;;;3.05;1.90;;;;;;;17.62;98.36;98568.56;10336875;28;20152;-73
2023/08/02 07:19:20;;;;;;;4.07;2.05;;;;;;;17.67;98.66;98554.53;10329914;28;20054;-74
2023/08/02 07:24:22;;;;;;;2.75;1.92;;;;;;;17.66;99.08;98550.16;10330800;28;20042;-75
2023/08/02 07:29:23;;;;;;;3.83;1.98;;;;;;;17.57;99.56;98538.00;10331196;28;20132;-74
2023/08/02 07:34:24;;;;;;;3.13;1.73;;;;;;;17.56;100.00;98531.75;10333140;28;20088;-74
2023/08/02 07:39:26;;;;;;;2.58;1.50;;;;;;;17.60;100.00;98533.00;10327385;28;20045;-70
2023/08/02 07:44:27;;;;;;;2.35;1.25;;;;;;;17.44;100.00;98530.75;10326047;28;20080;-74
2023/08/02 07:49:29;;;;;;;2.50;1.42;;;;;;;17.54;100.00;98533.84;10326453;28;20128;-73
2023/08/02 07:54:30;;;;;;;1.85;1.30;;;;;;;17.54;100.00;98524.97;10321013;28;20077;-74
2023/08/02 07:59:43;;;;;;;2.45;1.40;;;;;;;17.61;100.00;98501.53;10323644;28;20152;-72
2023/08/02 08:04:45;;;;;;;2.67;1.35;;;;;;;17.55;100.00;98491.63;10321438;28;20056;-72
2023/08/02 08:09:46;;;;;;;2.20;1.40;;;;;;;17.62;100.00;98487.88;10327581;28;20128;-74
2023/08/02 08:14:48;;;;;;;2.78;1.70;;;;;;;17.60;100.00;98484.56;10327822;28;20048;-71
2023/08/02 08:19:49;;;;;;;2.65;1.80;;;;;;;17.65;100.00;98470.47;10322425;28;20467;-75
2023/08/02 08:24:51;;;;;;;2.40;1.63;;;;;;;17.59;100.00;98471.34;10331804;28;20524;-73
2023/08/02 08:29:52;;;;;;;1.85;1.40;;;;;;;17.64;100.00;98463.47;10332134;28;20053;-75
2023/08/02 08:34:54;;;;;;;2.50;1.50;;;;;;;17.62;100.00;98455.59;10334807;28;20795;-78
2023/08/02 08:39:56;;;;;;;2.45;1.75;;;;;;;17.67;100.00;98447.72;10333040;28;20128;-75
2023/08/02 08:45:18;;;;;;;2.90;1.73;;;;;;;17.62;100.00;98444.00;10329989;28;20172;-76
2023/08/02 08:50:21;;;;;;;1.73;1.20;;;;;;;17.62;100.00;98423.31;10332429;28;20065;-75
2023/08/02 08:55:26;;;;;;;2.38;1.20;;;;;;;17.63;100.00;98424.97;10335981;28;20079;-75
2023/08/02 09:00:31;;;;;;;2.13;1.13;;;;;;;17.66;100.00;98412.94;10328704;28;20056;-77
2023/08/02 09:05:33;;;;;;;1.85;1.17;;;;;;;17.72;100.00;98403.22;10330738;28;20780;-76
2023/08/02 09:10:35;;;;;;;2.53;1.38;;;;;;;17.69;100.00;98395.56;10325068;28;20057;-75
2023/08/02 09:15:36;;;;;;;1.30;1.13;;;;;;;17.75;100.00;98397.41;10329953;28;20060;-75
2023/08/02 09:20:38;;;;;;;1.95;1.52;;;;;;;17.70;100.00;98389.13;10324258;28;20533;-72
2023/08/02 09:25:40;;;;;;;1.17;0.95;;;;;;;17.69;100.00;98379.41;10326906;28;20698;-77
2023/08/02 09:30:41;;;;;;;2.28;1.00;;;;;;;17.64;100.00;98361.25;10321227;28;20141;-72
2023/08/02 09:35:45;;;;;;;3.67;1.20;;;;;;;17.71;100.00;98371.94;10330117;28;20080;-74
2023/08/02 09:40:47;;;;;;;1.95;1.30;;;;;;;17.69;100.00;98363.28;10329067;28;20045;-73
2023/08/02 09:46:35;;;;;;;2.22;0.88;;;;;;;17.77;100.00;98346.88;10325429;28;20067;-74
2023/08/02 09:51:41;;;;;;;2.85;0.95;;;;;;;17.81;100.00;98340.84;10325817;28;20081;-78
2023/08/02 09:56:43;;;;;;;1.27;0.88;;;;;;;17.74;100.00;98323.09;10318810;28;20045;-75
2023/08/02 10:01:47;;;;;;;1.42;0.70;;;;;;;17.81;100.00;98323.88;10329074;28;20054;-76
2023/08/02 10:06:55;;;;;;;0.90;0.77;;;;;;;17.83;100.00;98322.63;10322282;28;20690;-74
2023/08/02 10:12:06;;;;;;;1.67;0.90;;;;;;;17.85;100.00;98303.56;10325493;28;20508;-75
2023/08/02 10:17:09;;;;;;;1.95;1.20;;;;;;;17.85;100.00;98290.09;10324977;28;20271;-75
2023/08/02 10:22:12;;;;;;;1.23;0.90;;;;;;;17.88;100.00;98276.22;10324286;28;20050;-77
2023/08/02 10:27:15;;;;;;;1.17;0.80;;;;;;;17.88;100.00;98265.44;10329208;28;20047;-77
2023/08/02 10:32:18;;;;;;;1.40;0.80;;;;;;;17.91;100.00;98265.03;10326686;28;20058;-73
2023/08/02 10:37:21;;;;;;;1.00;0.85;;;;;;;17.94;100.00;98259.22;10326217;28;20775;-73
2023/08/02 10:42:29;;;;;;;1.15;0.80;;;;;;;17.97;100.00;98242.63;10311912;28;20133;-75
2023/08/02 10:47:34;;;;;;;1.58;1.05;;;;;;;18.03;100.00;98235.53;10306737;28;20060;-75
2023/08/02 10:52:41;;;;;;;2.03;1.45;;;;;;;18.08;100.00;98226.78;10320604;28;20496;-76
2023/08/02 10:57:54;;;;;;;1.88;1.25;;;;;;;18.17;100.00;98222.75;10323345;28;20164;-79
2023/08/02 11:02:56;;;;;;;1.42;1.33;;;;;;;18.26;100.00;98212.53;10324697;28;20139;-77
2023/08/02 11:08:01;;;;;;;1.77;0.90;;;;;;;18.22;100.00;98206.75;10332286;28;20050;-74
2023/08/02 11:13:03;;;;;;;1.60;0.98;;;;;;;18.26;100.00;98194.50;10328260;28;20061;-77
2023/08/02 11:18:04;;;;;;;1.55;1.30;;;;;;;18.32;100.00;98195.47;10343659;28;20065;-79
2023/08/02 11:23:24;;;;;;;1.70;1.00;;;;;;;18.31;100.00;98167.72;10348402;28;20412;-75
2023/08/02 11:28:25;;;;;;;1.95;1.20;;;;;;;18.37;100.00;98172.22;10346221;28;20056;-74
2023/08/02 11:33:28;;;;;;;2.08;0.80;;;;;;;18.31;100.00;98164.19;10342159;28;20054;-71
2023/08/02 11:38:29;;;;;;;1.50;1.05;;;;;;;18.36;100.00;98159.78;10341947;28;20613;-76
2023/08/02 11:43:36;;;;;;;1.27;1.10;;;;;;;18.38;100.00;98157.69;10330770;28;20397;-75
2023/08/02 11:48:37;;;;;;;1.75;1.45;;;;;;;18.42;100.00;98162.63;10336061;28;20056;-75
2023/08/02 11:53:50;;;;;;;1.95;0.95;;;;;;;18.37;100.00;98149.84;10334487;28;22448;-74
2023/08/02 11:58:53;;;;;;;1.33;0.90;;;;;;;18.36;100.00;98157.09;10334188;28;20100;-75
2023/08/02 12:03:58;;;;;;;2.17;1.10;;;;;;;18.37;100.00;98163.31;10328231;28;20054;-73
2023/08/02 12:09:00;;;;;;;2.75;1.15;;;;;;;18.37;100.00;98128.28;10331972;28;20067;-75
2023/08/02 12:14:06;;;;;;;1.60;0.93;;;;;;;18.39;100.00;98136.97;10329305;28;20052;-74
2023/08/02 12:19:09;;;;;;;1.50;1.20;;;;;;;18.48;100.00;98124.00;10333633;28;20647;-75
2023/08/02 12:24:16;;;;;;;2.00;0.88;;;;;;;18.47;100.00;98107.03;10326245;28;20046;-75
2023/08/02 12:29:23;;;;;;;2.22;1.00;;;;;;;18.52;100.00;98082.91;10327594;28;20716;-80
2023/08/02 12:34:27;;;;;;;1.63;0.90;;;;;;;18.63;100.00;98084.03;10330742;28;20524;-79
2023/08/02 12:39:29;;;;;;;2.15;1.23;;;;;;;18.69;100.00;98093.88;10330568;28;20127;-76
2023/08/02 12:44:31;;;;;;;1.67;0.95;;;;;;;18.80;100.00;98111.16;10321799;28;21126;-74
2023/08/02 12:49:33;;;;;;;2.63;1.17;;;;;;;18.87;100.00;98084.13;10330551;28;20076;-76
2023/08/02 12:54:34;;;;;;;1.38;1.02;;;;;;;18.99;100.00;98082.28;10329695;28;20239;-78
2023/08/02 12:59:36;;;;;;;1.88;1.20;;;;;;;19.06;100.00;98088.38;10330791;28;20057;-75
2023/08/02 13:04:37;;;;;;;2.53;1.50;;;;;;;19.20;100.00;98055.81;10316642;28;20401;-73
2023/08/02 13:09:39;;;;;;;2.60;1.27;;;;;;;19.40;100.00;98069.78;10324918;28;20128;-77
2023/08/02 13:14:41;;;;;;;1.85;1.20;;;;;;;19.60;100.00;98065.91;10319670;28;20046;-75
2023/08/02 13:19:42;;;;;;;3.33;1.30;;;;;;;19.80;100.00;98056.66;10326444;28;20062;-76
2023/08/02 13:24:44;;;;;;;1.90;1.02;;;;;;;20.03;100.00;98053.91;10322943;28;20133;-75
2023/08/02 13:29:46;;;;;;;1.90;1.42;;;;;;;20.04;100.00;98050.16;10324195;28;20077;-77
2023/08/02 13:34:48;;;;;;;3.53;1.83;;;;;;;19.98;100.00;98044.88;10322658;28;20636;-76
2023/08/02 13:39:49;;;;;;;2.55;1.63;;;;;;;19.94;100.00;98052.66;10319442;28;20533;-75
2023/08/02 13:44:52;;;;;;;4.45;1.63;;;;;;;19.92;100.00;98052.06;10326175;28;20677;-73
2023/08/02 13:49:55;;;;;;;1.93;1.60;;;;;;;19.84;100.00;98045.16;10322203;28;20069;-74
2023/08/02 13:54:56;;;;;;;2.23;1.47;;;;;;;19.75;100.00;98039.25;10323183;28;20072;-75
2023/08/02 13:59:58;;;;;;;2.30;1.88;;;;;;;19.72;100.00;98025.44;10322205;28;20900;-76
2023/08/02 14:04:59;;;;;;;2.55;1.55;;;;;;;19.66;100.00;98002.91;10324588;28;20196;-78
2023/08/02 14:10:02;;;;;;;2.75;1.88;;;;;;;19.68;100.00;98002.66;10324018;28;20060;-77
2023/08/02 14:15:04;;;;;;;2.53;2.00;;;;;;;19.62;100.00;97985.53;10324012;28;20045;-74
2023/08/02 14:20:06;;;;;;;2.47;2.00;;;;;;;19.69;100.00;97982.72;10326352;28;20045;-75
2023/08/02 14:25:09;;;;;;;2.22;1.75;;;;;;;19.64;100.00;97996.13;10312175;28;20084;-74
2023/08/02 14:30:11;;;;;;;3.77;2.57;;;;;;;19.56;100.00;97986.50;10316110;28;20054;-74
2023/08/02 14:35:12;;;;;;;4.00;2.30;;;;;;;19.59;100.00;97984.16;10316833;28;20508;-73
2023/08/02 14:40:14;;;;;;;3.22;2.45;;;;;;;19.68;100.00;97998.09;10313324;28;20053;-75
2023/08/02 14:45:15;;;;;;;4.07;2.70;;;;;;;19.74;100.00;97975.56;10317370;28;20069;-75
2023/08/02 14:50:19;;;;;;;4.20;2.65;;;;;;;19.77;100.00;97977.81;10322941;28;20623;-76
2023/08/02 14:55:21;;;;;;;2.75;2.40;;;;;;;19.75;100.00;97981.78;10276940;28;20053;-76
2023/08/02 15:00:24;;;;;;;1.73;1.60;;;;;;;19.68;100.00;97991.88;10296916;28;20183;-77
2023/08/02 15:05:28;;;;;;;1.77;1.23;;;;;;;19.56;100.00;98032.34;10302604;28;20058;-79
2023/08/02 15:10:32;;;;;;;1.85;1.25;;;;;;;19.53;100.00;98017.47;10318646;28;20965;-74
2023/08/02 15:15:34;;;;;;;1.67;1.20;;;;;;;19.43;100.00;98042.34;10320356;28;20050;-73
2023/08/02 15:20:38;;;;;;;1.58;1.08;;;;;;;19.40;100.00;98023.13;10279100;28;20057;-76
2023/08/02 15:25:40;;;;;;;1.15;0.80;;;;;;;19.14;100.00;97983.94;10306998;28;20053;-74
2023/08/02 15:30:41;;;;;;;1.20;0.82;;;;;;;18.86;100.00;97990.84;10302565;28;20065;-72
2023/08/02 15:35:43;;;;;;;1.95;0.93;;;;;;;18.94;100.00;97987.81;10311384;28;20097;-75
2023/08/02 15:40:46;;;;;;;2.80;1.02;;;;;;;18.85;97.30;97994.56;10285698;28;20593;-74
2023/08/02 15:45:47;;;;;;;2.25;1.15;;;;;;;18.72;99.27;97992.91;10299241;28;20043;-76
2023/08/02 15:50:49;;;;;;;1.75;0.90;;;;;;;18.55;100.00;97980.13;10289172;28;20703;-77
2023/08/02 15:55:50;;;;;;;2.15;1.00;;;;;;;18.35;100.00;97961.53;10279719;28;20737;-74
2023/08/02 16:00:52;;;;;;;5.65;0.88;;;;;;;18.34;100.00;97961.78;10325245;28;20200;-76
2023/08/02 16:05:57;;;;;;;1.23;0.80;;;;;;;18.28;100.00;97954.59;10373676;28;20050;-77
2023/08/02 16:11:02;;;;;;;1.48;1.00;;;;;;;18.25;99.71;97972.03;10339015;28;20053;-73
2023/08/02 16:16:07;;;;;;;2.45;0.90;;;;;;;18.27;100.00;97943.03;10331858;28;20058;-73
2023/08/02 16:21:10;;;;;;;1.17;0.60;;;;;;;18.34;100.00;97935.66;10295003;28;20061;-74
2023/08/02 16:26:11;;;;;;;1.50;1.00;;;;;;;18.44;100.00;97926.22;10266623;28;20072;-75
2023/08/02 16:31:13;;;;;;;2.17;1.00;;;;;;;18.51;100.00;97933.13;10297883;28;20054;-74
2023/08/02 16:36:14;;;;;;;1.58;0.90;;;;;;;18.51;100.00;97916.97;10295390;28;20053;-81
2023/08/02 16:41:18;;;;;;;1.85;1.10;;;;;;;18.56;100.00;97913.56;10267915;28;20053;-73
2023/08/02 16:46:20;;;;;;;2.45;1.25;;;;;;;18.66;100.00;97921.91;10289706;28;20064;-73
2023/08/02 16:51:24;;;;;;;2.47;1.08;;;;;;;18.71;100.00;97905.03;10280804;28;20678;-75
2023/08/02 16:56:26;;;;;;;2.28;1.00;;;;;;;18.78;100.00;97915.69;10294608;28;20614;-75
2023/08/02 17:01:36;;;;;;;2.10;0.70;;;;;;;18.82;100.00;97908.78;10314255;28;20157;-74
2023/08/02 17:06:38;;;;;;;1.70;1.20;;;;;;;18.81;100.00;97902.59;10261428;28;20644;-74
2023/08/02 17:11:39;;;;;;;3.00;1.00;;;;;;;18.92;100.00;97925.22;10250780;28;20061;-78
2023/08/02 17:16:41;;;;;;;2.30;1.15;;;;;;;18.99;100.00;97934.03;10328618;28;20061;-77
2023/08/02 17:21:43;;;;;;;1.33;0.77;;;;;;;19.02;100.00;97933.56;10316743;28;24446;-76
2023/08/02 17:26:48;;;;;;;2.65;0.85;;;;;;;19.04;100.00;97926.03;10317057;28;20044;-75
2023/08/02 17:31:50;;;;;;;1.70;1.00;;;;;;;19.11;100.00;97938.56;10326826;28;20076;-76
2023/08/02 17:36:52;;;;;;;2.85;1.02;;;;;;;19.12;100.00;97924.06;10318698;28;20074;-76
2023/08/02 17:41:53;;;;;;;2.45;0.70;;;;;;;19.16;100.00;97934.13;10323633;28;21709;-73
2023/08/02 17:46:55;;;;;;;1.80;0.85;;;;;;;19.12;100.00;97937.53;10316142;28;20140;-76
2023/08/02 17:51:57;;;;;;;3.03;0.83;;;;;;;19.10;100.00;97935.06;10324709;28;20058;-76
2023/08/02 17:56:59;;;;;;;1.58;0.80;;;;;;;19.18;100.00;97940.09;10322412;28;20180;-74
2023/08/02 18:02:00;;;;;;;1.33;0.90;;;;;;;19.19;100.00;97941.75;10323536;28;20049;-74
2023/08/02 18:07:03;;;;;;;2.40;1.15;;;;;;;19.22;100.00;97951.25;10324196;28;20156;-75
2023/08/02 18:12:05;;;;;;;1.55;0.85;;;;;;;19.30;100.00;97958.97;10321858;28;20500;-74
2023/08/02 18:17:06;;;;;;;1.20;0.98;;;;;;;19.31;100.00;97963.31;10318530;28;20049;-75
2023/08/02 18:22:07;;;;;;;2.28;0.90;;;;;;;19.34;100.00;97976.31;10326671;28;20056;-75
2023/08/02 18:27:09;;;;;;;1.70;1.30;;;;;;;19.39;100.00;97984.50;10319394;28;20650;-73
2023/08/02 18:32:11;;;;;;;3.22;1.00;;;;;;;19.45;100.00;98000.81;10317535;28;20054;-74
2023/08/02 18:37:12;;;;;;;3.90;1.02;;;;;;;19.43;100.00;98001.06;10319337;28;20141;-77
2023/08/02 18:42:14;;;;;;;1.85;1.20;;;;;;;19.43;100.00;98001.88;10321690;28;20057;-72
2023/08/02 18:47:15;;;;;;;2.33;1.10;;;;;;;19.45;100.00;98008.91;10320449;28;20057;-73
2023/08/02 18:52:16;;;;;;;2.03;0.88;;;;;;;19.43;100.00;98012.66;10345597;28;21014;-75
2023/08/02 18:57:18;;;;;;;3.97;1.50;;;;;;;19.38;100.00;98031.44;10333628;28;20051;-73
2023/08/02 19:02:19;;;;;;;2.55;1.25;;;;;;;19.37;100.00;98048.69;10328124;28;20054;-72
2023/08/02 19:07:21;;;;;;;2.17;1.25;;;;;;;19.36;100.00;98052.41;10331079;28;20062;-72
2023/08/02 19:12:23;;;;;;;4.15;1.50;;;;;;;19.36;100.00;98055.13;10327417;28;20050;-72
2023/08/02 19:17:24;;;;;;;4.43;1.60;;;;;;;19.36;100.00;98076.69;10342362;28;20177;-74
2023/08/02 19:22:26;;;;;;;3.10;1.13;;;;;;;19.38;100.00;98081.84;10332858;28;20440;-73
2023/08/02 19:27:27;;;;;;;1.60;1.13;;;;;;;19.43;100.00;98099.00;10325181;28;20128;-73
2023/08/02 19:32:29;;;;;;;2.33;1.20;;;;;;;19.47;100.00;98104.75;10329501;28;20106;-71
2023/08/02 19:37:30;;;;;;;2.97;1.00;;;;;;;19.50;97.92;98122.34;10328454;28;20120;-74
2023/08/02 19:42:39;;;;;;;2.92;1.30;;;;;;;19.54;90.74;98126.22;10331906;28;20139;-72
2023/08/02 19:47:41;;;;;;;4.72;1.88;;;;;;;19.57;84.27;98142.75;10325762;28;20054;-72
2023/08/02 19:52:43;;;;;;;3.33;1.20;;;;;;;19.61;80.50;98153.91;10326073;28;21256;-75
2023/08/02 19:57:44;;;;;;;3.35;1.33;;;;;;;19.60;74.64;98165.75;10328589;28;20057;-72
2023/08/02 20:02:46;;;;;;;5.53;1.33;;;;;;;19.58;74.95;98165.19;10323148;28;22299;-72
2023/08/02 20:07:47;;;;;;;5.68;1.70;;;;;;;19.60;72.64;98179.25;10323104;28;20128;-73
2023/08/02 20:12:49;;;;;;;6.50;1.38;;;;;;;19.56;74.77;98184.31;10325541;28;20057;-74
2023/08/02 20:17:54;;;;;;;3.92;1.88;;;;;;;19.58;70.97;98202.97;10324564;28;20046;-74
2023/08/02 20:22:56;;;;;;;4.00;1.02;;;;;;;19.55;73.22;98209.63;10325989;28;20106;-72
2023/08/02 20:27:57;;;;;;;4.90;1.08;;;;;;;19.57;72.40;98212.91;10318207;28;20125;-72
2023/08/02 20:32:59;;;;;;;4.20;1.30;;;;;;;19.55;70.77;98208.81;10321854;28;20058;-72
2023/08/02 20:38:01;;;;;;;4.40;1.48;;;;;;;19.51;71.10;98208.44;10331712;28;20134;-75
2023/08/02 20:43:06;;;;;;;5.43;1.55;;;;;;;19.54;71.25;98228.75;10331596;28;20104;-79
2023/08/02 20:48:10;;;;;;;7.30;1.83;;;;;;;19.49;71.79;98223.25;10341502;28;20053;-80
2023/08/02 20:53:14;;;;;;;6.47;1.38;;;;;;;19.49;72.06;98232.16;10377027;28;20033;-74
2023/08/02 20:58:22;;;;;;;5.30;2.33;;;;;;;19.49;69.88;98237.53;10338319;28;20111;-74
2023/08/02 21:03:24;;;;;;;5.82;1.35;;;;;;;19.48;68.85;98237.78;10333531;28;20066;-78
2023/08/02 21:08:25;;;;;;;5.38;1.35;;;;;;;19.52;69.39;98247.06;10332169;28;20120;-80
2023/08/02 21:13:27;;;;;;;4.03;1.40;;;;;;;19.51;67.81;98240.00;10330109;28;20049;-73
2023/08/02 21:18:31;;;;;;;4.97;1.52;;;;;;;19.51;68.01;98248.09;10335044;28;20745;-73
2023/08/02 21:23:32;;;;;;;9.30;2.33;;;;;;;19.51;67.44;98250.81;10329952;28;20057;-77
2023/08/02 21:28:36;;;;;;;5.72;1.30;;;;;;;19.50;68.24;98250.00;10332624;28;20053;-76
2023/08/02 21:33:37;;;;;;;7.75;1.63;;;;;;;19.46;68.08;98256.88;10333307;28;20062;-77
2023/08/02 21:38:39;;;;;;;5.05;1.58;;;;;;;19.44;69.46;98267.06;10338467;28;20052;-80
2023/08/02 21:43:42;;;;;;;7.00;1.88;;;;;;;19.39;69.05;98264.25;10334812;28;21377;-74
2023/08/02 21:48:45;;;;;;;5.15;1.25;;;;;;;19.37;69.08;98274.47;10338318;28;20397;-75
2023/08/02 21:53:48;;;;;;;4.13;1.40;;;;;;;19.34;70.03;98264.13;10335401;28;20110;-78
2023/08/02 21:58:58;;;;;;;5.10;1.33;;;;;;;19.34;69.66;98267.63;10335201;28;20057;-75
2023/08/02 22:04:02;;;;;;;4.07;1.33;;;;;;;19.31;69.40;98259.19;10330700;28;20049;-74
2023/08/02 22:09:03;;;;;;;5.47;1.77;;;;;;;19.36;68.79;98278.19;10331744;28;20096;-76
2023/08/02 22:14:04;;;;;;;5.90;1.38;;;;;;;19.33;69.14;98263.28;10330049;28;20467;-73
2023/08/02 22:19:06;;;;;;;6.13;1.00;;;;;;;19.39;68.33;98281.25;10327593;28;20057;-72
2023/08/02 22:24:07;;;;;;;8.90;2.00;;;;;;;19.40;68.82;98277.50;10330964;28;20053;-72
2023/08/02 22:29:09;;;;;;;4.15;0.85;;;;;;;19.40;68.54;98288.31;10328917;28;20144;-75
2023/08/02 22:34:10;;;;;;;6.38;1.20;;;;;;;19.40;68.39;98280.19;10330168;28;20046;-73
2023/08/02 22:39:11;;;;;;;3.95;1.30;;;;;;;19.46;67.15;98296.53;10333051;28;20133;-74
2023/08/02 22:44:14;;;;;;;5.78;1.85;;;;;;;19.47;67.55;98303.56;10330233;28;20084;-77
2023/08/02 22:49:15;;;;;;;3.42;1.38;;;;;;;19.49;67.80;98312.28;10330333;28;20077;-73
2023/08/02 22:54:19;;;;;;;6.72;1.10;;;;;;;19.47;66.88;98308.97;10329652;28;20151;-73
2023/08/02 22:59:21;;;;;;;5.38;1.75;;;;;;;19.41;66.97;98300.75;10328225;28;20136;-73
2023/08/02 23:04:22;;;;;;;3.28;0.90;;;;;;;19.51;67.68;98326.34;10328439;28;20770;-77
2023/08/02 23:09:25;;;;;;;4.90;1.30;;;;;;;19.51;67.92;98316.38;10328340;28;20049;-74
2023/08/02 23:14:26;;;;;;;7.15;2.15;;;;;;;19.54;68.71;98333.97;10329811;28;20053;-73
2023/08/02 23:19:28;;;;;;;6.18;1.48;;;;;;;19.51;67.29;98304.75;10330386;28;20153;-72